sensor_id;sensor_type;location;lat;lon;timestamp;pressure;altitude;pressure_sealevel;temperature;humidity
9257;BME280;4665;51.368;6.782;2023-06-22T00:01:16;101506.50;;;21.25;100.00
9257;BME280;4665;51.368;6.782;2023-06-22T00:03:41;101503.81;;;21.25;100.00
9257;BME280;4665;51.368;6.782;2023-06-22T00:06:09;101503.81;;;21.25;100.00
9257;BME280;4665;51.368;6.782;2023-06-22T00:08:35;101509.66;;;21.22;100.00
9257;BME280;4665;51.368;6.782;2023-06-22T00:11:00;101504.22;;;21.22;100.00
9257;BME280;4665;51.368;6.782;2023-06-22T00:13:26;101509.03;;;21.27;100.00
9257;BME280;4665;51.368;6.782;2023-06-22T00:15:51;101505.50;;;21.26;100.00
9257;BME280;4665;51.368;6.782;2023-06-22T00:18:17;101502.16;;;21.24;100.00
9257;BME280;4665;51.368;6.782;2023-06-22T00:20:43;101509.22;;;21.25;100.00
9257;BME280;4665;51.368;6.782;2023-06-22T00:23:10;101502.16;;;21.24;100.00
9257;BME280;4665;51.368;6.782;2023-06-22T00:25:37;101500.28;;;21.25;100.00
9257;BME280;4665;51.368;6.782;2023-06-22T00:28:03;101499.25;;;21.19;100.00
9257;BME280;4665;51.368;6.782;2023-06-22T00:30:30;101510.47;;;21.16;100.00
9257;BME280;4665;51.368;6.782;2023-06-22T00:32:56;101494.63;;;21.13;100.00
9257;BME280;4665;51.368;6.782;2023-06-22T00:35:22;101492.56;;;21.08;100.00
9257;BME280;4665;51.368;6.782;2023-06-22T00:37:50;101500.47;;;21.10;100.00
9257;BME280;4665;51.368;6.782;2023-06-22T00:40:22;101497.53;;;21.11;100.00
9257;BME280;4665;51.368;6.782;2023-06-22T00:42:48;101500.88;;;21.07;100.00
9257;BME280;4665;51.368;6.782;2023-06-22T00:45:13;101497.13;;;21.08;100.00
9257;BME280;4665;51.368;6.782;2023-06-22T00:47:39;101496.06;;;21.02;100.00
9257;BME280;4665;51.368;6.782;2023-06-22T00:50:06;101490.88;;;21.00;100.00
9257;BME280;4665;51.368;6.782;2023-06-22T00:52:33;101487.75;;;20.97;100.00
9257;BME280;4665;51.368;6.782;2023-06-22T00:55:01;101490.44;;;20.97;100.00
9257;BME280;4665;51.368;6.782;2023-06-22T00:57:27;101490.03;;;20.93;100.00
9257;BME280;4665;51.368;6.782;2023-06-22T00:59:54;101492.94;;;20.92;100.00
9257;BME280;4665;51.368;6.782;2023-06-22T01:02:19;101490.44;;;20.90;100.00
9257;BME280;4665;51.368;6.782;2023-06-22T01:04:45;101493.78;;;20.92;100.00
9257;BME280;4665;51.368;6.782;2023-06-22T01:12:39;101484.19;;;20.83;100.00
9257;BME280;4665;51.368;6.782;2023-06-22T01:15:11;101488.13;;;20.80;100.00
9257;BME280;4665;51.368;6.782;2023-06-22T01:17:40;101472.50;;;20.76;100.00
9257;BME280;4665;51.368;6.782;2023-06-22T01:20:09;101479.56;;;20.77;100.00
9257;BME280;4665;51.368;6.782;2023-06-22T01:25:31;101471.44;;;20.77;100.00
9257;BME280;4665;51.368;6.782;2023-06-22T01:31:03;101475.00;;;20.77;100.00
9257;BME280;4665;51.368;6.782;2023-06-22T01:33:35;101457.50;;;20.73;100.00
9257;BME280;4665;51.368;6.782;2023-06-22T01:36:03;101466.25;;;20.75;100.00
9257;BME280;4665;51.368;6.782;2023-06-22T01:38:30;101462.72;;;20.75;100.00
9257;BME280;4665;51.368;6.782;2023-06-22T01:40:57;101466.25;;;20.75;100.00
9257;BME280;4665;51.368;6.782;2023-06-22T01:43:25;101458.75;;;20.71;100.00
9257;BME280;4665;51.368;6.782;2023-06-22T01:45:52;101463.53;;;20.69;100.00
9257;BME280;4665;51.368;6.782;2023-06-22T01:48:19;101467.91;;;20.70;100.00
9257;BME280;4665;51.368;6.782;2023-06-22T01:50:45;101468.31;;;20.67;100.00
9257;BME280;4665;51.368;6.782;2023-06-22T01:53:11;101468.09;;;20.62;100.00
9257;BME280;4665;51.368;6.782;2023-06-22T01:55:37;101467.88;;;20.56;100.00
9257;BME280;4665;51.368;6.782;2023-06-22T01:58:02;101456.78;;;20.51;100.00
9257;BME280;4665;51.368;6.782;2023-06-22T02:00:31;101461.59;;;20.49;100.00
9257;BME280;4665;51.368;6.782;2023-06-22T02:03:07;101457.63;;;20.45;100.00
9257;BME280;4665;51.368;6.782;2023-06-22T02:05:38;101467.84;;;20.50;100.00
9257;BME280;4665;51.368;6.782;2023-06-22T02:08:10;101462.84;;;20.53;100.00
9257;BME280;4665;51.368;6.782;2023-06-22T02:10:38;101466.16;;;20.55;100.00
9257;BME280;4665;51.368;6.782;2023-06-22T02:13:07;101457.41;;;20.53;100.00
9257;BME280;4665;51.368;6.782;2023-06-22T02:15:34;101461.19;;;20.52;100.00
9257;BME280;4665;51.368;6.782;2023-06-22T02:18:00;101461.19;;;20.52;100.00
9257;BME280;4665;51.368;6.782;2023-06-22T02:20:26;101457.00;;;20.50;100.00
9257;BME280;4665;51.368;6.782;2023-06-22T02:22:51;101454.50;;;20.48;100.00
9257;BME280;4665;51.368;6.782;2023-06-22T02:25:17;101458.25;;;20.47;100.00
9257;BME280;4665;51.368;6.782;2023-06-22T02:27:42;101456.56;;;20.46;100.00
9257;BME280;4665;51.368;6.782;2023-06-22T02:30:08;101454.09;;;20.45;100.00
9257;BME280;4665;51.368;6.782;2023-06-22T02:32:34;101448.66;;;20.38;100.00
9257;BME280;4665;51.368;6.782;2023-06-22T02:35:00;101449.66;;;20.37;100.00
9257;BME280;4665;51.368;6.782;2023-06-22T02:37:29;101444.47;;;20.29;100.00
9257;BME280;4665;51.368;6.782;2023-06-22T02:39:55;101447.53;;;20.26;100.00
9257;BME280;4665;51.368;6.782;2023-06-22T02:42:20;101453.78;;;20.20;100.00
9257;BME280;4665;51.368;6.782;2023-06-22T02:44:47;101448.56;;;20.18;100.00
9257;BME280;4665;51.368;6.782;2023-06-22T02:47:12;101440.22;;;20.13;100.00
9257;BME280;4665;51.368;6.782;2023-06-22T02:49:38;101446.06;;;20.10;100.00
9257;BME280;4665;51.368;6.782;2023-06-22T02:52:04;101447.25;;;20.07;100.00
9257;BME280;4665;51.368;6.782;2023-06-22T02:54:29;101448.50;;;20.05;100.00
9257;BME280;4665;51.368;6.782;2023-06-22T02:56:55;101449.75;;;20.02;100.00
9257;BME280;4665;51.368;6.782;2023-06-22T02:59:20;101444.75;;;19.99;100.00
9257;BME280;4665;51.368;6.782;2023-06-22T03:01:49;101442.66;;;19.94;100.00
9257;BME280;4665;51.368;6.782;2023-06-22T03:04:15;101442.22;;;19.97;100.00
9257;BME280;4665;51.368;6.782;2023-06-22T03:06:41;101428.28;;;19.94;100.00
9257;BME280;4665;51.368;6.782;2023-06-22T03:09:07;101420.78;;;19.89;100.00
9257;BME280;4665;51.368;6.782;2023-06-22T03:11:33;101428.03;;;19.89;100.00
9257;BME280;4665;51.368;6.782;2023-06-22T03:14:00;101427.63;;;19.85;100.00
9257;BME280;4665;51.368;6.782;2023-06-22T03:16:26;101407.66;;;19.80;100.00
9257;BME280;4665;51.368;6.782;2023-06-22T03:18:52;101421.38;;;19.85;100.00
9257;BME280;4665;51.368;6.782;2023-06-22T03:21:27;101405.13;;;19.78;100.00
9257;BME280;4665;51.368;6.782;2023-06-22T03:23:53;101418.47;;;19.80;100.00
9257;BME280;4665;51.368;6.782;2023-06-22T03:26:18;101411.38;;;19.79;100.00
9257;BME280;4665;51.368;6.782;2023-06-22T03:28:44;101415.31;;;19.76;100.00
9257;BME280;4665;51.368;6.782;2023-06-22T03:31:12;101415.50;;;19.74;100.00
9257;BME280;4665;51.368;6.782;2023-06-22T03:33:38;101417.81;;;19.78;100.00
9257;BME280;4665;51.368;6.782;2023-06-22T03:36:04;101413.06;;;19.80;100.00
9257;BME280;4665;51.368;6.782;2023-06-22T03:38:29;101405.97;;;19.79;100.00
9257;BME280;4665;51.368;6.782;2023-06-22T03:40:55;101396.19;;;19.78;100.00
9257;BME280;4665;51.368;6.782;2023-06-22T03:43:20;101391.81;;;19.76;100.00
9257;BME280;4665;51.368;6.782;2023-06-22T03:45:45;101387.22;;;19.77;100.00
9257;BME280;4665;51.368;6.782;2023-06-22T03:48:12;101387.66;;;19.81;100.00
9257;BME280;4665;51.368;6.782;2023-06-22T03:50:37;101379.16;;;19.84;100.00
9257;BME280;4665;51.368;6.782;2023-06-22T03:53:03;101380.19;;;19.83;100.00
9257;BME280;4665;51.368;6.782;2023-06-22T03:55:28;101384.19;;;19.87;100.00
9257;BME280;4665;51.368;6.782;2023-06-22T03:57:54;101386.03;;;19.86;100.00
9257;BME280;4665;51.368;6.782;2023-06-22T04:00:22;101380.41;;;19.88;100.00
9257;BME280;4665;51.368;6.782;2023-06-22T04:02:48;101388.97;;;19.91;100.00
9257;BME280;4665;51.368;6.782;2023-06-22T04:05:13;101384.78;;;19.89;100.00
9257;BME280;4665;51.368;6.782;2023-06-22T04:07:39;101393.53;;;19.91;100.00
9257;BME280;4665;51.368;6.782;2023-06-22T04:10:05;101393.53;;;19.91;100.00
9257;BME280;4665;51.368;6.782;2023-06-22T04:12:30;101391.47;;;19.93;100.00
9257;BME280;4665;51.368;6.782;2023-06-22T04:14:56;101393.16;;;19.94;100.00
9257;BME280;4665;51.368;6.782;2023-06-22T04:17:21;101390.44;;;19.94;100.00
9257;BME280;4665;51.368;6.782;2023-06-22T04:19:50;101390.84;;;19.97;100.00
9257;BME280;4665;51.368;6.782;2023-06-22T04:22:18;101389.84;;;19.99;100.00
9257;BME280;4665;51.368;6.782;2023-06-22T04:24:44;101392.13;;;20.02;100.00
9257;BME280;4665;51.368;6.782;2023-06-22T04:27:09;101392.94;;;20.02;100.00
9257;BME280;4665;51.368;6.782;2023-06-22T04:29:35;101386.91;;;20.00;100.00
9257;BME280;4665;51.368;6.782;2023-06-22T04:32:00;101401.28;;;20.07;100.00
9257;BME280;4665;51.368;6.782;2023-06-22T04:34:30;101407.13;;;20.11;100.00
9257;BME280;4665;51.368;6.782;2023-06-22T04:36:55;101406.94;;;20.12;100.00
9257;BME280;4665;51.368;6.782;2023-06-22T04:39:21;101405.72;;;20.15;100.00
9257;BME280;4665;51.368;6.782;2023-06-22T04:41:46;101389.66;;;20.13;100.00
9257;BME280;4665;51.368;6.782;2023-06-22T04:44:19;101391.97;;;20.16;100.00
9257;BME280;4665;51.368;6.782;2023-06-22T04:46:50;101388.66;;;20.14;100.00
9257;BME280;4665;51.368;6.782;2023-06-22T04:49:20;101393.66;;;20.17;100.00
9257;BME280;4665;51.368;6.782;2023-06-22T04:51:46;101393.66;;;20.17;100.00
9257;BME280;4665;51.368;6.782;2023-06-22T04:54:11;101384.47;;;20.18;100.00
9257;BME280;4665;51.368;6.782;2023-06-22T04:56:37;101394.91;;;20.22;100.00
9257;BME280;4665;51.368;6.782;2023-06-22T04:59:03;101387.41;;;20.17;100.00
9257;BME280;4665;51.368;6.782;2023-06-22T05:01:28;101383.25;;;20.14;100.00
9257;BME280;4665;51.368;6.782;2023-06-22T05:03:56;101387.59;;;20.15;100.00
9257;BME280;4665;51.368;6.782;2023-06-22T05:06:25;101388.22;;;20.17;100.00
9257;BME280;4665;51.368;6.782;2023-06-22T05:08:54;101387.81;;;20.21;100.00
9257;BME280;4665;51.368;6.782;2023-06-22T05:11:25;101381.13;;;20.16;100.00
9257;BME280;4665;51.368;6.782;2023-06-22T05:13:50;101377.41;;;20.17;100.00
9257;BME280;4665;51.368;6.782;2023-06-22T05:16:16;101366.56;;;20.11;100.00
9257;BME280;4665;51.368;6.782;2023-06-22T05:18:41;101371.97;;;20.11;100.00
9257;BME280;4665;51.368;6.782;2023-06-22T05:21:08;101378.22;;;20.11;100.00
9257;BME280;4665;51.368;6.782;2023-06-22T05:23:34;101393.66;;;20.17;100.00
9257;BME280;4665;51.368;6.782;2023-06-22T05:25:59;101390.94;;;20.17;100.00
9257;BME280;4665;51.368;6.782;2023-06-22T05:28:25;101393.22;;;20.21;100.00
9257;BME280;4665;51.368;6.782;2023-06-22T05:30:50;101391.16;;;20.23;100.00
9257;BME280;4665;51.368;6.782;2023-06-22T05:33:16;101391.16;;;20.23;100.00
9257;BME280;4665;51.368;6.782;2023-06-22T05:35:41;101397.84;;;20.27;100.00
9257;BME280;4665;51.368;6.782;2023-06-22T05:38:07;101406.16;;;20.25;100.00
9257;BME280;4665;51.368;6.782;2023-06-22T05:40:33;101404.88;;;20.21;100.00
9257;BME280;4665;51.368;6.782;2023-06-22T05:42:58;101414.47;;;20.17;100.00
9257;BME280;4665;51.368;6.782;2023-06-22T05:45:25;101424.41;;;20.16;100.00
9257;BME280;4665;51.368;6.782;2023-06-22T05:47:54;101434.00;;;20.12;100.00
9257;BME280;4665;51.368;6.782;2023-06-22T05:50:19;101430.00;;;20.08;100.00
9257;BME280;4665;51.368;6.782;2023-06-22T05:52:45;101440.84;;;20.08;100.00
9257;BME280;4665;51.368;6.782;2023-06-22T05:55:10;101437.31;;;20.08;100.00
9257;BME280;4665;51.368;6.782;2023-06-22T05:57:35;101429.78;;;20.03;100.00
9257;BME280;4665;51.368;6.782;2023-06-22T06:00:01;101429.16;;;20.01;100.00
9257;BME280;4665;51.368;6.782;2023-06-22T06:02:30;101429.53;;;19.98;100.00
9257;BME280;4665;51.368;6.782;2023-06-22T06:04:56;101433.69;;;19.94;100.00
9257;BME280;4665;51.368;6.782;2023-06-22T06:07:21;101431.13;;;19.79;100.00
9257;BME280;4665;51.368;6.782;2023-06-22T06:09:47;101427.88;;;19.62;100.00
9257;BME280;4665;51.368;6.782;2023-06-22T06:12:13;101427.84;;;19.55;100.00
9257;BME280;4665;51.368;6.782;2023-06-22T06:14:38;101434.19;;;19.41;100.00
9257;BME280;4665;51.368;6.782;2023-06-22T06:17:04;101433.50;;;19.32;100.00
9257;BME280;4665;51.368;6.782;2023-06-22T06:19:30;101426.72;;;19.15;100.00
9257;BME280;4665;51.368;6.782;2023-06-22T06:21:56;101434.72;;;19.02;100.00
9257;BME280;4665;51.368;6.782;2023-06-22T06:24:29;101438.56;;;18.92;100.00
9257;BME280;4665;51.368;6.782;2023-06-22T06:26:55;101436.00;;;18.84;100.00
9257;BME280;4665;51.368;6.782;2023-06-22T06:29:32;101437.88;;;18.84;100.00
9257;BME280;4665;51.368;6.782;2023-06-22T06:31:58;101444.88;;;18.78;100.00
9257;BME280;4665;51.368;6.782;2023-06-22T06:34:26;101447.44;;;18.86;100.00
9257;BME280;4665;51.368;6.782;2023-06-22T06:36:51;101453.13;;;18.91;100.00
9257;BME280;4665;51.368;6.782;2023-06-22T06:39:26;101450.25;;;19.00;100.00
9257;BME280;4665;51.368;6.782;2023-06-22T06:41:51;101448.84;;;19.04;100.00
9257;BME280;4665;51.368;6.782;2023-06-22T06:44:29;101446.63;;;19.14;100.00
9257;BME280;4665;51.368;6.782;2023-06-22T06:46:55;101452.88;;;19.14;100.00
9257;BME280;4665;51.368;6.782;2023-06-22T06:49:27;101446.63;;;19.14;100.00
9257;BME280;4665;51.368;6.782;2023-06-22T06:51:53;101442.06;;;19.14;100.00
9257;BME280;4665;51.368;6.782;2023-06-22T06:54:19;101444.19;;;19.19;100.00
9257;BME280;4665;51.368;6.782;2023-06-22T06:56:45;101442.13;;;19.21;100.00
9257;BME280;4665;51.368;6.782;2023-06-22T06:59:14;101432.59;;;19.25;100.00
9257;BME280;4665;51.368;6.782;2023-06-22T07:01:42;101436.59;;;19.29;100.00
9257;BME280;4665;51.368;6.782;2023-06-22T07:04:09;101434.78;;;19.37;100.00
9257;BME280;4665;51.368;6.782;2023-06-22T07:06:35;101434.59;;;19.38;100.00
9257;BME280;4665;51.368;6.782;2023-06-22T07:09:06;101432.06;;;19.37;100.00
9257;BME280;4665;51.368;6.782;2023-06-22T07:11:31;101430.78;;;19.32;100.00
9257;BME280;4665;51.368;6.782;2023-06-22T07:13:58;101445.59;;;19.37;100.00
9257;BME280;4665;51.368;6.782;2023-06-22T07:16:23;101442.88;;;19.37;100.00
9257;BME280;4665;51.368;6.782;2023-06-22T07:18:51;101427.72;;;19.36;100.00
9257;BME280;4665;51.368;6.782;2023-06-22T07:21:16;101431.88;;;19.38;100.00
9257;BME280;4665;51.368;6.782;2023-06-22T07:24:10;101428.97;;;19.40;100.00
9257;BME280;4665;51.368;6.782;2023-06-22T07:26:36;101429.81;;;19.40;100.00
9257;BME280;4665;51.368;6.782;2023-06-22T07:29:01;101426.91;;;19.42;100.00
9257;BME280;4665;51.368;6.782;2023-06-22T07:31:27;101436.06;;;19.41;100.00
9257;BME280;4665;51.368;6.782;2023-06-22T07:33:54;101432.72;;;19.39;100.00
9257;BME280;4665;51.368;6.782;2023-06-22T07:36:20;101422.72;;;19.39;100.00
9257;BME280;4665;51.368;6.782;2023-06-22T07:39:17;101430.66;;;19.41;100.00
9257;BME280;4665;51.368;6.782;2023-06-22T07:41:42;101426.72;;;19.43;100.00
9257;BME280;4665;51.368;6.782;2023-06-22T07:44:29;101425.91;;;19.43;100.00
9257;BME280;4665;51.368;6.782;2023-06-22T07:46:55;101428.19;;;19.46;100.00
9257;BME280;4665;51.368;6.782;2023-06-22T07:49:21;101411.56;;;19.49;100.00
9257;BME280;4665;51.368;6.782;2023-06-22T07:51:47;101400.13;;;19.47;100.00
9257;BME280;4665;51.368;6.782;2023-06-22T07:54:49;101399.53;;;19.45;100.00
9257;BME280;4665;51.368;6.782;2023-06-22T07:57:15;101391.59;;;19.43;100.00
9257;BME280;4665;51.368;6.782;2023-06-22T07:59:55;101387.47;;;19.47;100.00
9257;BME280;4665;51.368;6.782;2023-06-22T08:02:20;101371.44;;;19.46;100.00
9257;BME280;4665;51.368;6.782;2023-06-22T08:04:49;101373.97;;;19.47;100.00
9257;BME280;4665;51.368;6.782;2023-06-22T08:07:14;101361.69;;;19.45;100.00
9257;BME280;4665;51.368;6.782;2023-06-22T08:09:46;101352.50;;;19.39;100.00
9257;BME280;4665;51.368;6.782;2023-06-22T08:12:11;101341.69;;;19.39;100.00
9257;BME280;4665;51.368;6.782;2023-06-22T08:14:38;101331.97;;;19.45;100.00
9257;BME280;4665;51.368;6.782;2023-06-22T08:17:04;101332.59;;;19.47;100.00
9257;BME280;4665;51.368;6.782;2023-06-22T08:19:29;101328.69;;;19.56;100.00
9257;BME280;4665;51.368;6.782;2023-06-22T08:21:55;101322.03;;;19.59;100.00
9257;BME280;4665;51.368;6.782;2023-06-22T08:24:20;101315.44;;;19.68;100.00
9257;BME280;4665;51.368;6.782;2023-06-22T08:26:46;101313.38;;;19.70;100.00
9257;BME280;4665;51.368;6.782;2023-06-22T08:29:12;101329.03;;;19.81;100.00
9257;BME280;4665;51.368;6.782;2023-06-22T08:31:37;101332.59;;;19.88;100.00
9257;BME280;4665;51.368;6.782;2023-06-22T08:34:02;101326.56;;;19.93;100.00
9257;BME280;4665;51.368;6.782;2023-06-22T08:36:28;101326.19;;;19.96;100.00
9257;BME280;4665;51.368;6.782;2023-06-22T08:38:58;101335.53;;;20.00;100.00
9257;BME280;4665;51.368;6.782;2023-06-22T08:41:28;101340.56;;;20.03;100.00
9257;BME280;4665;51.368;6.782;2023-06-22T08:43:53;101335.97;;;20.04;100.00
9257;BME280;4665;51.368;6.782;2023-06-22T08:46:19;101334.31;;;20.09;100.00
9257;BME280;4665;51.368;6.782;2023-06-22T08:48:48;101339.53;;;20.17;100.00
9257;BME280;4665;51.368;6.782;2023-06-22T08:51:14;101321.03;;;20.21;100.00
9257;BME280;4665;51.368;6.782;2023-06-22T08:53:39;101321.03;;;20.28;100.00
9257;BME280;4665;51.368;6.782;2023-06-22T08:56:04;101324.59;;;20.35;100.00
9257;BME280;4665;51.368;6.782;2023-06-22T08:58:30;101319.41;;;20.40;100.00
9257;BME280;4665;51.368;6.782;2023-06-22T09:00:55;101323.34;;;20.51;100.00
9257;BME280;4665;51.368;6.782;2023-06-22T09:03:21;101326.09;;;20.57;100.00
9257;BME280;4665;51.368;6.782;2023-06-22T09:05:46;101323.78;;;20.68;100.00
9257;BME280;4665;51.368;6.782;2023-06-22T09:08:12;101321.72;;;20.76;100.00
9257;BME280;4665;51.368;6.782;2023-06-22T09:10:37;101315.88;;;20.86;100.00
9257;BME280;4665;51.368;6.782;2023-06-22T09:13:03;101317.94;;;21.04;100.00
9257;BME280;4665;51.368;6.782;2023-06-22T09:15:28;101314.97;;;21.26;100.00
9257;BME280;4665;51.368;6.782;2023-06-22T09:17:54;101320.38;;;21.46;100.00
9257;BME280;4665;51.368;6.782;2023-06-22T09:20:20;101300.75;;;21.50;100.00
9257;BME280;4665;51.368;6.782;2023-06-22T09:22:45;101306.53;;;21.67;100.00
9257;BME280;4665;51.368;6.782;2023-06-22T09:25:11;101295.38;;;21.89;100.00
9257;BME280;4665;51.368;6.782;2023-06-22T09:27:37;101296.69;;;22.11;100.00
9257;BME280;4665;51.368;6.782;2023-06-22T09:30:02;101279.75;;;22.22;100.00
9257;BME280;4665;51.368;6.782;2023-06-22T09:32:28;101280.53;;;22.30;100.00
9257;BME280;4665;51.368;6.782;2023-06-22T09:34:56;101277.09;;;22.41;100.00
9257;BME280;4665;51.368;6.782;2023-06-22T09:37:22;101273.56;;;22.40;100.00
9257;BME280;4665;51.368;6.782;2023-06-22T09:39:47;101269.41;;;22.38;100.00
9257;BME280;4665;51.368;6.782;2023-06-22T09:42:12;101261.97;;;22.26;100.00
9257;BME280;4665;51.368;6.782;2023-06-22T09:44:38;101263.22;;;22.31;100.00
9257;BME280;4665;51.368;6.782;2023-06-22T09:47:04;101261.09;;;22.33;100.00
9257;BME280;4665;51.368;6.782;2023-06-22T09:49:30;101246.47;;;22.34;100.00
9257;BME280;4665;51.368;6.782;2023-06-22T09:51:55;101253.34;;;22.36;100.00
9257;BME280;4665;51.368;6.782;2023-06-22T09:54:21;101247.88;;;22.43;100.00
9257;BME280;4665;51.368;6.782;2023-06-22T09:56:46;101245.09;;;22.50;100.00
9257;BME280;4665;51.368;6.782;2023-06-22T09:59:12;101244.19;;;22.56;100.00
9257;BME280;4665;51.368;6.782;2023-06-22T10:01:37;101240.13;;;22.65;100.00
9257;BME280;4665;51.368;6.782;2023-06-22T10:04:02;101240.53;;;22.68;100.00
9257;BME280;4665;51.368;6.782;2023-06-22T10:06:28;101236.94;;;22.75;100.00
9257;BME280;4665;51.368;6.782;2023-06-22T10:08:53;101234.56;;;22.78;100.00
9257;BME280;4665;51.368;6.782;2023-06-22T10:11:21;101231.44;;;22.81;100.00
9257;BME280;4665;51.368;6.782;2023-06-22T10:13:52;101229.69;;;22.87;100.00
9257;BME280;4665;51.368;6.782;2023-06-22T10:16:17;101232.56;;;22.92;100.00
9257;BME280;4665;51.368;6.782;2023-06-22T10:18:43;101224.78;;;22.96;100.00
9257;BME280;4665;51.368;6.782;2023-06-22T10:21:08;101221.44;;;23.00;100.00
9257;BME280;4665;51.368;6.782;2023-06-22T10:23:34;101214.47;;;23.04;100.00
9257;BME280;4665;51.368;6.782;2023-06-22T10:25:59;101209.88;;;23.05;100.00
9257;BME280;4665;51.368;6.782;2023-06-22T10:28:25;101219.91;;;23.04;100.00
9257;BME280;4665;51.368;6.782;2023-06-22T10:30:50;101218.25;;;23.03;100.00
9257;BME280;4665;51.368;6.782;2023-06-22T10:33:16;101217.66;;;23.01;100.00
9257;BME280;4665;51.368;6.782;2023-06-22T10:35:41;101220.34;;;23.01;100.00
9257;BME280;4665;51.368;6.782;2023-06-22T10:38:07;101231.22;;;23.01;100.00
9257;BME280;4665;51.368;6.782;2023-06-22T10:40:33;101228.34;;;22.96;100.00
9257;BME280;4665;51.368;6.782;2023-06-22T10:42:58;101233.75;;;22.96;100.00
9257;BME280;4665;51.368;6.782;2023-06-22T10:45:24;101235.06;;;22.94;100.00
9257;BME280;4665;51.368;6.782;2023-06-22T10:47:49;101234.28;;;22.86;100.00
9257;BME280;4665;51.368;6.782;2023-06-22T10:50:14;101244.31;;;22.86;100.00
9257;BME280;4665;51.368;6.782;2023-06-22T10:52:40;101260.22;;;22.82;100.00
9257;BME280;4665;51.368;6.782;2023-06-22T10:55:08;101261.97;;;22.77;100.00
9257;BME280;4665;51.368;6.782;2023-06-22T10:57:33;101265.13;;;22.74;100.00
9257;BME280;4665;51.368;6.782;2023-06-22T10:59:59;101265.13;;;22.74;100.00
9257;BME280;4665;51.368;6.782;2023-06-22T11:02:24;101256.81;;;22.68;100.00
9257;BME280;4665;51.368;6.782;2023-06-22T11:04:50;101258.47;;;22.69;100.00
9257;BME280;4665;51.368;6.782;2023-06-22T11:07:16;101264.97;;;22.68;100.00
9257;BME280;4665;51.368;6.782;2023-06-22T11:09:43;101260.00;;;22.65;100.00
9257;BME280;4665;51.368;6.782;2023-06-22T11:12:08;101261.94;;;22.58;100.00
9257;BME280;4665;51.368;6.782;2023-06-22T11:14:34;101283.47;;;22.53;100.00
9257;BME280;4665;51.368;6.782;2023-06-22T11:16:59;101287.09;;;22.47;100.00
9257;BME280;4665;51.368;6.782;2023-06-22T11:19:25;101303.22;;;22.42;100.00
9257;BME280;4665;51.368;6.782;2023-06-22T11:21:50;101295.31;;;22.34;100.00
9257;BME280;4665;51.368;6.782;2023-06-22T11:24:16;101309.09;;;22.32;100.00
9257;BME280;4665;51.368;6.782;2023-06-22T11:26:42;101322.34;;;22.22;100.00
9257;BME280;4665;51.368;6.782;2023-06-22T11:29:07;101336.19;;;22.07;100.00
9257;BME280;4665;51.368;6.782;2023-06-22T11:31:34;101343.44;;;21.75;100.00
9257;BME280;4665;51.368;6.782;2023-06-22T11:34:01;101335.97;;;21.57;100.00
9257;BME280;4665;51.368;6.782;2023-06-22T11:36:26;101337.00;;;21.56;100.00
9257;BME280;4665;51.368;6.782;2023-06-22T11:39:11;101335.16;;;21.56;100.00
9257;BME280;4665;51.368;6.782;2023-06-22T11:41:39;101321.59;;;21.56;100.00
9257;BME280;4665;51.368;6.782;2023-06-22T11:44:04;101313.06;;;21.53;100.00
9257;BME280;4665;51.368;6.782;2023-06-22T11:49:31;101282.63;;;21.37;100.00
9257;BME280;4665;51.368;6.782;2023-06-22T11:52:03;101259.13;;;21.25;100.00
9257;BME280;4665;51.368;6.782;2023-06-22T11:54:29;101237.50;;;21.18;100.00
9257;BME280;4665;51.368;6.782;2023-06-22T11:56:56;101221.69;;;21.08;100.00
9257;BME280;4665;51.368;6.782;2023-06-22T11:59:22;101201.09;;;21.00;100.00
9257;BME280;4665;51.368;6.782;2023-06-22T12:05:12;101209.47;;;20.86;100.00
9257;BME280;4665;51.368;6.782;2023-06-22T12:07:38;101214.25;;;20.77;100.00
9257;BME280;4665;51.368;6.782;2023-06-22T12:10:04;101215.13;;;20.71;100.00
9257;BME280;4665;51.368;6.782;2023-06-22T12:12:29;101205.31;;;20.70;100.00
9257;BME280;4665;51.368;6.782;2023-06-22T12:14:55;101215.56;;;20.61;100.00
9257;BME280;4665;51.368;6.782;2023-06-22T12:17:20;101226.59;;;20.59;100.00
9257;BME280;4665;51.368;6.782;2023-06-22T12:19:46;101228.66;;;20.57;100.00
9257;BME280;4665;51.368;6.782;2023-06-22T12:22:11;101209.53;;;20.66;100.00
9257;BME280;4665;51.368;6.782;2023-06-22T12:24:36;101209.28;;;20.74;100.00
9257;BME280;4665;51.368;6.782;2023-06-22T12:27:02;101182.19;;;20.87;100.00
9257;BME280;4665;51.368;6.782;2023-06-22T12:29:28;101171.97;;;20.89;100.00
9257;BME280;4665;51.368;6.782;2023-06-22T12:31:54;101177.38;;;20.89;100.00
9257;BME280;4665;51.368;6.782;2023-06-22T12:34:19;101179.69;;;20.86;100.00
9257;BME280;4665;51.368;6.782;2023-06-22T12:36:45;101179.47;;;20.87;100.00
9257;BME280;4665;51.368;6.782;2023-06-22T12:39:12;101175.91;;;20.93;100.00
9257;BME280;4665;51.368;6.782;2023-06-22T12:41:38;101176.50;;;20.95;100.00
9257;BME280;4665;51.368;6.782;2023-06-22T12:44:03;101172.97;;;21.01;100.00
9257;BME280;4665;51.368;6.782;2023-06-22T12:46:29;101161.06;;;21.02;100.00
9257;BME280;4665;51.368;6.782;2023-06-22T12:49:01;101167.97;;;20.98;100.00
9257;BME280;4665;51.368;6.782;2023-06-22T12:51:26;101160.47;;;21.00;100.00
9257;BME280;4665;51.368;6.782;2023-06-22T12:53:51;101157.16;;;20.98;100.00
9257;BME280;4665;51.368;6.782;2023-06-22T12:56:17;101151.72;;;20.98;100.00
9257;BME280;4665;51.368;6.782;2023-06-22T12:58:42;101166.28;;;21.04;100.00
9257;BME280;4665;51.368;6.782;2023-06-22T13:01:08;101157.94;;;21.06;100.00
9257;BME280;4665;51.368;6.782;2023-06-22T13:03:33;101148.16;;;21.05;100.00
9257;BME280;4665;51.368;6.782;2023-06-22T13:05:59;101143.59;;;21.05;100.00
9257;BME280;4665;51.368;6.782;2023-06-22T13:08:25;101148.94;;;21.12;100.00
9257;BME280;4665;51.368;6.782;2023-06-22T13:10:50;101149.56;;;21.14;100.00
9257;BME280;4665;51.368;6.782;2023-06-22T13:13:15;101159.38;;;21.15;100.00
9257;BME280;4665;51.368;6.782;2023-06-22T13:15:41;101163.31;;;21.19;100.00